Kindersley, Canada
Current Conditions -  °F | °C
As of 10:00 AM on Sunday 25 Jan 2015 (Local Time) from CYKY Reporting Station
Broken Clouds Broken Clouds  
Wind Chill: 21°   Ceiling: 9000
Heat Index: 30°   Visibility: 15mi
Dew Point: 25°   Wind: 12mph
Humidity: 80%   Direction: 180°S
Pressure: 29.73"   Gusts: NA
Location:  51.47°N, 109.16°W
Report Text: CYKY 251600Z 18010KT 15SM SCT040 BKN090 BKN240 M01/M04 A2973 RMK SC4AC2CI1 SLP097
Loading
Personal Weather Stations






























Interactive Weather Map New forecast layout! Learn more

10-Day Weather Forecast

Advertisements
Track Severe Weather on mobile